Windsor, CA (95492)

3:45 AM PST on November 23, 2014 (GMT -0800)
Windsor Fire | Change Station
CLOSE
Current Station
Personal Weather Station
Location: Windsor, CA
Elevation: 128 ft
Nearby Weather Stations

Elev 128 ft 38.54 °N, 122.80 °W | Updated 7 minutes ago

Clear
Clear
48.6 °F
Feels Like 46 °F
N
6.0
Wind Variable Wind from NE
Gusts 9.0 mph

Today
High -- | Low -- °F
--% Chance of Precip.
Yesterday
High -- | Low -- °F
Precip. -- in
7:01 AM 4:53 PM
New Moon, 1% visible
Pressure 30.27 in
Visibility 10.0 miles
Clouds Clear
Windchill 46 °F
Dew Point 45 °F
Humidity 87%
Rainfall 0.00 in
Snow Depth Not available.
UV 0 out of 12
Pollen .40 out of 12
Air Quality Not available.
Flu Activity Not available.
METAR KSTS 231053Z AUTO 34003KT 10SM CLR 08/06 A3028 RMK AO2 SLP248 T00780061

More Conditions Fewer Conditions

Pressure 30.27 in
Visibility 10.0 miles
Clouds Clear
Windchill 46 °F
Dew Point 45 °F
Humidity 87%
Rainfall 0.00 in
Snow Depth Not available.
UV 0 out of 12
Pollen .40 out of 12
Air Quality Not available.
Flu Activity Not available.
METAR KSTS 231053Z AUTO 34003KT 10SM CLR 08/06 A3028 RMK AO2 SLP248 T00780061

More Conditions Fewer Conditions

10-Day Weather Forecast

Almanac

Astronomy

Nov. 23, 2014 Rise Set
Actual Time
Civil Twilight
Nautical Twilight
Astronomical Twilight
Moon
Length of Visible Light
Length of Day
Tomorrow will be .
, % of the Moon is Illuminated

Today's Extremes

State Highs State Lows

Community

WunderPhotos

Upload Photos

1,773,036 photos uploaded!

WunderBlogs® & News

Nearby

Air Quality

  Air Quality AQ Index Pollutant
Not available.

Snow Depth

Station Depth Elevation

Earthquake Activity

City Distance Mag. Time & Date
Minimum magnitude displayed is 2.5.

Coastal Water Temperatures

Place Temperature

Nearby Weather Stations